Time;durP1;ratioP1;P1;durP2;ratioP2;P2;SDS_P1;SDS_P2;PMS_P1;PMS_P2;Temp;Humidity;BMP_temperature;BMP_pressure;BME280_temperature;BME280_humidity;BME280_pressure;Samples;Min_cycle;Max_cycle;Signal;HPM_P1;HPM_P2
2021/04/29 00:00:47;;;;;;;12.80;9.55;;;;;;;;;;1466081;40;20471;-85
2021/04/29 00:01:48;;;;;;;13.40;9.82;;;;;;;;;;1470686;40;20416;-85
2021/04/29 00:02:50;;;;;;;14.18;10.43;;;;;;;;;;1478396;40;20835;-86
2021/04/29 00:03:51;;;;;;;13.30;9.88;;;;;;;;;;1476288;40;21172;-85
2021/04/29 00:04:52;;;;;;;13.68;9.68;;;;;;;;;;1474363;40;20411;-84
2021/04/29 00:05:55;;;;;;;13.18;10.48;;;;;;;;;;1474142;40;20591;-84
2021/04/29 00:06:57;;;;;;;15.35;11.07;;;;;;;;;;1465894;40;20420;-85
2021/04/29 00:07:58;;;;;;;13.63;10.15;;;;;;;;;;1462110;40;20457;-85
2021/04/29 00:08:59;;;;;;;14.50;10.37;;;;;;;;;;1461029;40;20445;-85
2021/04/29 00:10:01;;;;;;;13.75;10.40;;;;;;;;;;1466077;40;20414;-84
2021/04/29 00:11:03;;;;;;;12.40;10.00;;;;;;;;;;1472804;40;20798;-84
2021/04/29 00:12:05;;;;;;;14.85;11.00;;;;;;;;;;1469561;40;20456;-84
2021/04/29 00:13:06;;;;;;;16.33;10.45;;;;;;;;;;1470161;40;20402;-85
2021/04/29 00:14:09;;;;;;;18.67;10.95;;;;;;;;;;1479963;40;20410;-86
2021/04/29 00:15:11;;;;;;;16.00;11.18;;;;;;;;;;1479880;40;20397;-85
2021/04/29 00:16:12;;;;;;;15.10;10.70;;;;;;;;;;1479969;40;20480;-88
2021/04/29 00:17:14;;;;;;;17.40;10.77;;;;;;;;;;1476133;40;20418;-88
2021/04/29 00:18:15;;;;;;;16.90;12.02;;;;;;;;;;1474314;40;20409;-88
2021/04/29 00:19:17;;;;;;;16.05;11.80;;;;;;;;;;1480284;40;20412;-87
2021/04/29 00:20:19;;;;;;;16.35;11.18;;;;;;;;;;1476276;40;20394;-85
2021/04/29 00:21:20;;;;;;;16.88;10.75;;;;;;;;;;1476172;40;20416;-84
2021/04/29 00:22:23;;;;;;;14.50;11.50;;;;;;;;;;1481073;40;20572;-86
2021/04/29 00:23:26;;;;;;;15.10;11.45;;;;;;;;;;1475675;40;20404;-87
2021/04/29 00:24:27;;;;;;;14.23;11.10;;;;;;;;;;1475397;40;20396;-87
2021/04/29 00:25:29;;;;;;;16.90;11.73;;;;;;;;;;1475365;40;20419;-87
2021/04/29 00:26:31;;;;;;;17.73;11.88;;;;;;;;;;1472537;40;20800;-84
2021/04/29 00:27:32;;;;;;;18.98;13.02;;;;;;;;;;1471133;40;20444;-88
2021/04/29 00:28:33;;;;;;;15.73;11.43;;;;;;;;;;1475203;40;20467;-88
2021/04/29 00:29:34;;;;;;;16.08;11.77;;;;;;;;;;1471526;40;20429;-88
2021/04/29 00:30:35;;;;;;;18.38;12.27;;;;;;;;;;1471635;40;20401;-85
2021/04/29 00:31:37;;;;;;;15.27;11.80;;;;;;;;;;1479110;40;20383;-86
2021/04/29 00:32:38;;;;;;;16.05;12.38;;;;;;;;;;1476429;40;20389;-88
2021/04/29 00:33:39;;;;;;;14.23;11.13;;;;;;;;;;1471586;40;20482;-89
2021/04/29 00:34:40;;;;;;;14.55;11.20;;;;;;;;;;1471916;40;20409;-87
2021/04/29 00:35:41;;;;;;;15.02;12.15;;;;;;;;;;1471764;40;20406;-86
2021/04/29 00:36:44;;;;;;;15.77;11.10;;;;;;;;;;1472453;40;20412;-88
2021/04/29 00:37:47;;;;;;;16.15;11.85;;;;;;;;;;1466991;40;20417;-89
2021/04/29 00:38:48;;;;;;;15.18;11.65;;;;;;;;;;1475689;40;20414;-88
2021/04/29 00:39:49;;;;;;;15.63;11.55;;;;;;;;;;1483556;40;20401;-88
2021/04/29 00:40:50;;;;;;;16.90;11.70;;;;;;;;;;1476040;40;20413;-88
2021/04/29 00:41:51;;;;;;;14.70;10.88;;;;;;;;;;1472050;40;20411;-88
2021/04/29 00:42:52;;;;;;;17.67;12.05;;;;;;;;;;1471658;40;20380;-89
2021/04/29 00:43:53;;;;;;;15.25;11.13;;;;;;;;;;1475735;40;20417;-87
2021/04/29 00:44:54;;;;;;;14.20;11.75;;;;;;;;;;1471482;40;20419;-85
2021/04/29 00:45:56;;;;;;;16.83;11.15;;;;;;;;;;1476088;40;20413;-86
2021/04/29 00:46:57;;;;;;;14.07;11.48;;;;;;;;;;1470624;40;20404;-87
2021/04/29 00:47:59;;;;;;;17.85;10.68;;;;;;;;;;1474105;40;20495;-86
2021/04/29 00:49:00;;;;;;;13.50;10.60;;;;;;;;;;1477668;40;20835;-86
2021/04/29 00:50:02;;;;;;;14.80;10.20;;;;;;;;;;1476205;40;20412;-86
2021/04/29 00:51:03;;;;;;;14.98;10.82;;;;;;;;;;1475370;40;20404;-86
2021/04/29 00:52:05;;;;;;;14.43;10.95;;;;;;;;;;1481371;40;20550;-86
2021/04/29 00:53:06;;;;;;;14.52;10.43;;;;;;;;;;1478894;40;20410;-86
2021/04/29 00:54:07;;;;;;;16.52;11.23;;;;;;;;;;1470426;40;20424;-86
2021/04/29 00:55:09;;;;;;;16.95;10.93;;;;;;;;;;1470165;40;20434;-86
2021/04/29 00:56:10;;;;;;;13.70;10.35;;;;;;;;;;1473408;40;20513;-86
2021/04/29 00:57:14;;;;;;;13.80;10.27;;;;;;;;;;1474334;40;21057;-86
2021/04/29 00:58:15;;;;;;;12.68;9.98;;;;;;;;;;1469087;40;20394;-86
2021/04/29 00:59:17;;;;;;;17.35;10.55;;;;;;;;;;1472846;40;21104;-86
2021/04/29 01:00:18;;;;;;;12.95;10.23;;;;;;;;;;1478273;40;20410;-86
2021/04/29 01:01:20;;;;;;;15.55;10.85;;;;;;;;;;1477893;40;20506;-87
2021/04/29 01:02:23;;;;;;;16.90;11.18;;;;;;;;;;1475962;40;20785;-85
2021/04/29 01:03:28;;;;;;;15.80;11.18;;;;;;;;;;1474911;40;20412;-86
2021/04/29 01:04:39;;;;;;;13.43;10.35;;;;;;;;;;1474024;40;20440;-85
2021/04/29 01:05:46;;;;;;;12.98;10.07;;;;;;;;;;1474821;40;20416;-85
2021/04/29 01:06:50;;;;;;;13.55;10.55;;;;;;;;;;1474234;40;20696;-85
2021/04/29 01:07:53;;;;;;;12.98;10.50;;;;;;;;;;1474717;40;20404;-86
2021/04/29 01:09:06;;;;;;;15.80;10.50;;;;;;;;;;1478993;40;20405;-87
2021/04/29 01:10:08;;;;;;;13.20;10.30;;;;;;;;;;1479135;40;20406;-86
2021/04/29 01:11:09;;;;;;;16.85;10.27;;;;;;;;;;1477082;40;20405;-86
2021/04/29 01:12:19;;;;;;;14.35;10.65;;;;;;;;;;1474143;40;20407;-85
2021/04/29 01:13:24;;;;;;;14.73;9.75;;;;;;;;;;1474848;40;20403;-87
2021/04/29 01:14:25;;;;;;;16.27;11.20;;;;;;;;;;1479206;40;20421;-84
2021/04/29 01:15:27;;;;;;;13.77;9.75;;;;;;;;;;1475711;40;20389;-86
2021/04/29 01:16:28;;;;;;;14.20;10.43;;;;;;;;;;1475245;40;20420;-88
2021/04/29 01:17:30;;;;;;;19.95;11.32;;;;;;;;;;1477064;40;20396;-87
2021/04/29 01:18:31;;;;;;;14.73;10.77;;;;;;;;;;1476306;40;20392;-87
2021/04/29 01:19:41;;;;;;;19.17;10.95;;;;;;;;;;1471662;40;20433;-86
2021/04/29 01:20:47;;;;;;;20.40;11.75;;;;;;;;;;1469767;40;20442;-85
2021/04/29 01:21:48;;;;;;;17.77;12.48;;;;;;;;;;1473399;40;20425;-85
2021/04/29 01:22:58;;;;;;;16.63;12.27;;;;;;;;;;1468380;40;20424;-87
2021/04/29 01:24:03;;;;;;;20.70;13.07;;;;;;;;;;1474558;40;20425;-88
2021/04/29 01:25:07;;;;;;;18.10;12.13;;;;;;;;;;1478014;40;20415;-87
2021/04/29 01:26:17;;;;;;;22.05;12.65;;;;;;;;;;1475671;40;20404;-86
2021/04/29 01:27:19;;;;;;;20.70;13.40;;;;;;;;;;1475512;40;20398;-87
2021/04/29 01:28:27;;;;;;;23.52;13.32;;;;;;;;;;1475199;40;20431;-86
2021/04/29 01:29:32;;;;;;;24.48;13.52;;;;;;;;;;1481187;40;20498;-89
2021/04/29 01:30:33;;;;;;;24.98;14.30;;;;;;;;;;1477111;40;20756;-87
2021/04/29 01:31:35;;;;;;;23.77;13.73;;;;;;;;;;1469370;40;20409;-86
2021/04/29 01:32:37;;;;;;;27.48;14.35;;;;;;;;;;1470734;40;20414;-87
2021/04/29 01:33:39;;;;;;;28.90;14.80;;;;;;;;;;1471697;40;20503;-87
2021/04/29 01:34:40;;;;;;;28.83;16.15;;;;;;;;;;1474857;40;20407;-87
2021/04/29 01:35:41;;;;;;;28.83;17.08;;;;;;;;;;1474545;40;20403;-88
2021/04/29 01:36:44;;;;;;;31.55;16.35;;;;;;;;;;1474051;40;20396;-87
2021/04/29 01:37:45;;;;;;;33.08;17.17;;;;;;;;;;1474698;40;20420;-87
2021/04/29 01:38:47;;;;;;;26.30;14.40;;;;;;;;;;1474716;40;20709;-87
2021/04/29 01:39:48;;;;;;;28.25;17.35;;;;;;;;;;1469317;40;20396;-87
2021/04/29 01:40:50;;;;;;;36.35;18.05;;;;;;;;;;1470484;40;20402;-89
2021/04/29 01:41:53;;;;;;;37.63;17.63;;;;;;;;;;1470500;40;20468;-88
2021/04/29 01:42:55;;;;;;;36.10;18.42;;;;;;;;;;1478980;40;20402;-88
2021/04/29 01:43:56;;;;;;;30.15;16.95;;;;;;;;;;1473717;40;20431;-88
2021/04/29 01:44:58;;;;;;;35.35;17.15;;;;;;;;;;1470149;40;20668;-89
2021/04/29 01:46:01;;;;;;;31.70;18.48;;;;;;;;;;1472127;40;20457;-88
2021/04/29 01:47:03;;;;;;;33.53;17.42;;;;;;;;;;1468165;40;20419;-88
2021/04/29 01:48:06;;;;;;;33.47;17.83;;;;;;;;;;1480081;40;20452;-91
2021/04/29 01:49:10;;;;;;;31.30;16.98;;;;;;;;;;1488042;40;20399;-89
2021/04/29 01:50:11;;;;;;;34.03;15.82;;;;;;;;;;1483923;40;20387;-88
2021/04/29 01:51:13;;;;;;;32.25;16.83;;;;;;;;;;1483799;40;20390;-90
2021/04/29 01:52:17;;;;;;;34.33;17.17;;;;;;;;;;1473973;40;20425;-91
2021/04/29 01:53:20;;;;;;;28.80;16.92;;;;;;;;;;1475938;40;20437;-90
2021/04/29 01:54:22;;;;;;;28.42;18.08;;;;;;;;;;1480512;40;20411;-90
2021/04/29 01:55:29;;;;;;;37.17;17.83;;;;;;;;;;1477101;40;20864;-90
2021/04/29 01:56:30;;;;;;;35.53;17.80;;;;;;;;;;1478536;40;20487;-91
2021/04/29 01:57:33;;;;;;;35.33;15.82;;;;;;;;;;1477630;40;20407;-91
2021/04/29 01:58:34;;;;;;;35.05;17.70;;;;;;;;;;1476793;40;20462;-88
2021/04/29 01:59:35;;;;;;;31.52;15.73;;;;;;;;;;1475634;40;20451;-88
2021/04/29 02:00:38;;;;;;;29.15;16.83;;;;;;;;;;1470562;40;20413;-89
2021/04/29 02:01:42;;;;;;;31.67;16.23;;;;;;;;;;1474816;40;20403;-89
2021/04/29 02:02:45;;;;;;;33.80;16.75;;;;;;;;;;1479399;40;20398;-88
2021/04/29 02:03:46;;;;;;;31.98;16.35;;;;;;;;;;1477192;40;20434;-89
2021/04/29 02:04:49;;;;;;;32.30;16.23;;;;;;;;;;1474722;40;20507;-88
2021/04/29 02:05:50;;;;;;;27.00;16.27;;;;;;;;;;1475367;40;20411;-88
2021/04/29 02:06:51;;;;;;;31.65;17.02;;;;;;;;;;1474567;40;20975;-90
2021/04/29 02:07:53;;;;;;;27.55;17.50;;;;;;;;;;1475550;40;20401;-88
2021/04/29 02:08:54;;;;;;;32.85;17.48;;;;;;;;;;1470491;40;20412;-89
2021/04/29 02:09:55;;;;;;;30.45;17.00;;;;;;;;;;1474232;40;20748;-87
2021/04/29 02:10:56;;;;;;;26.00;15.77;;;;;;;;;;1470638;40;20437;-88
2021/04/29 02:11:59;;;;;;;29.83;16.90;;;;;;;;;;1470524;40;20409;-90
2021/04/29 02:13:02;;;;;;;32.03;17.30;;;;;;;;;;1474968;40;20411;-88
2021/04/29 02:14:08;;;;;;;35.63;17.10;;;;;;;;;;1475003;40;20699;-88
2021/04/29 02:15:11;;;;;;;36.65;18.65;;;;;;;;;;1475536;40;20416;-88
2021/04/29 02:16:14;;;;;;;34.20;18.90;;;;;;;;;;1475642;40;20436;-90
2021/04/29 02:17:28;;;;;;;34.30;17.15;;;;;;;;;;1475643;40;20396;-88
2021/04/29 02:18:32;;;;;;;40.88;19.77;;;;;;;;;;1474060;40;21113;-88
2021/04/29 02:19:34;;;;;;;37.38;18.83;;;;;;;;;;1471323;40;20397;-88
2021/04/29 02:20:36;;;;;;;37.28;18.42;;;;;;;;;;1475247;40;20893;-87
2021/04/29 02:21:38;;;;;;;36.63;18.50;;;;;;;;;;1474840;40;21153;-88
2021/04/29 02:22:40;;;;;;;35.30;18.80;;;;;;;;;;1471546;40;20397;-88
2021/04/29 02:23:44;;;;;;;39.20;19.77;;;;;;;;;;1471773;40;20408;-88
2021/04/29 02:24:46;;;;;;;36.30;20.02;;;;;;;;;;1475314;40;20760;-88
2021/04/29 02:25:52;;;;;;;35.42;18.55;;;;;;;;;;1471074;40;20640;-87
2021/04/29 02:26:53;;;;;;;41.95;19.60;;;;;;;;;;1470008;40;20398;-87
2021/04/29 02:27:55;;;;;;;38.08;18.95;;;;;;;;;;1475017;40;20404;-89
2021/04/29 02:28:57;;;;;;;38.42;20.55;;;;;;;;;;1475143;40;20705;-89
2021/04/29 02:30:00;;;;;;;37.30;20.15;;;;;;;;;;1475582;40;20416;-89
2021/04/29 02:31:02;;;;;;;39.63;20.85;;;;;;;;;;1471107;40;20406;-88
2021/04/29 02:32:04;;;;;;;40.13;21.33;;;;;;;;;;1470436;40;20414;-89
2021/04/29 02:33:09;;;;;;;37.42;21.15;;;;;;;;;;1471166;40;20406;-90
2021/04/29 02:34:12;;;;;;;41.00;21.67;;;;;;;;;;1475656;40;20403;-89
2021/04/29 02:35:15;;;;;;;45.28;21.50;;;;;;;;;;1476103;40;20412;-90
2021/04/29 02:36:16;;;;;;;38.17;21.93;;;;;;;;;;1476576;40;20452;-89
2021/04/29 02:37:17;;;;;;;44.15;22.25;;;;;;;;;;1474830;40;20408;-90
2021/04/29 02:38:19;;;;;;;41.53;23.27;;;;;;;;;;1479997;40;20406;-89
2021/04/29 02:39:20;;;;;;;39.75;21.38;;;;;;;;;;1479642;40;20442;-90
2021/04/29 02:40:22;;;;;;;44.35;21.35;;;;;;;;;;1471201;40;20472;-89
2021/04/29 02:41:38;;;;;;;45.70;22.83;;;;;;;;;;1479957;40;20440;-91
2021/04/29 02:42:40;;;;;;;44.63;21.38;;;;;;;;;;1484683;40;20389;-89
2021/04/29 02:43:44;;;;;;;48.30;22.38;;;;;;;;;;1479918;40;20416;-93
2021/04/29 02:44:45;;;;;;;46.30;22.52;;;;;;;;;;1480288;40;20434;-89
2021/04/29 02:45:46;;;;;;;42.83;22.45;;;;;;;;;;1480308;40;20430;-90
2021/04/29 02:46:50;;;;;;;48.97;23.63;;;;;;;;;;1476145;40;20408;-91
2021/04/29 02:47:52;;;;;;;48.20;22.27;;;;;;;;;;1472892;40;20411;-89
2021/04/29 02:48:53;;;;;;;46.70;24.38;;;;;;;;;;1476295;40;20764;-90
2021/04/29 02:49:54;;;;;;;49.28;23.75;;;;;;;;;;1473513;40;20417;-90
2021/04/29 02:51:01;;;;;;;41.90;22.40;;;;;;;;;;1468417;40;20407;-89
2021/04/29 02:52:08;;;;;;;45.27;21.23;;;;;;;;;;1471739;40;20494;-87
2021/04/29 02:53:15;;;;;;;45.40;23.77;;;;;;;;;;1475605;40;20515;-89
2021/04/29 02:54:17;;;;;;;49.30;23.95;;;;;;;;;;1472002;40;20478;-89
2021/04/29 02:55:19;;;;;;;51.17;22.88;;;;;;;;;;1478205;40;20402;-91
2021/04/29 02:56:20;;;;;;;47.63;23.77;;;;;;;;;;1478810;40;20390;-91
2021/04/29 02:57:22;;;;;;;45.47;23.00;;;;;;;;;;1471844;40;20394;-91
2021/04/29 02:58:23;;;;;;;48.25;21.85;;;;;;;;;;1471309;40;20405;-91
2021/04/29 02:59:27;;;;;;;51.27;23.57;;;;;;;;;;1471735;40;20471;-91
2021/04/29 03:00:29;;;;;;;42.13;23.10;;;;;;;;;;1476047;40;20451;-90
2021/04/29 03:01:37;;;;;;;45.30;22.67;;;;;;;;;;1472073;40;20406;-90
2021/04/29 03:02:39;;;;;;;51.30;24.48;;;;;;;;;;1472656;40;20413;-91
2021/04/29 03:03:41;;;;;;;53.67;24.48;;;;;;;;;;1471442;40;20433;-90
2021/04/29 03:04:42;;;;;;;44.53;22.13;;;;;;;;;;1473070;40;20508;-90
2021/04/29 03:05:44;;;;;;;48.15;24.45;;;;;;;;;;1477318;40;20408;-90
2021/04/29 03:06:46;;;;;;;46.00;21.75;;;;;;;;;;1477879;40;20420;-89
2021/04/29 03:07:50;;;;;;;47.90;22.20;;;;;;;;;;1477886;40;20396;-92
2021/04/29 03:08:52;;;;;;;45.83;21.63;;;;;;;;;;1474766;40;20414;-91
2021/04/29 03:09:54;;;;;;;40.45;20.15;;;;;;;;;;1477251;40;20456;-91
2021/04/29 03:10:56;;;;;;;56.90;21.65;;;;;;;;;;1473144;40;20410;-91
2021/04/29 03:11:59;;;;;;;41.63;20.92;;;;;;;;;;1473638;40;20410;-92
2021/04/29 03:13:07;;;;;;;51.50;22.30;;;;;;;;;;1476111;40;20427;-92
2021/04/29 03:14:09;;;;;;;52.33;21.35;;;;;;;;;;1477323;40;20419;-93
2021/04/29 03:15:14;;;;;;;51.88;23.05;;;;;;;;;;1464725;40;20425;-91
2021/04/29 03:16:35;;;;;;;46.15;20.88;;;;;;;;;;1469806;40;20513;-91
2021/04/29 03:17:45;;;;;;;45.25;20.60;;;;;;;;;;1482457;40;20395;-93
2021/04/29 03:19:21;;;;;;;44.40;20.38;;;;;;;;;;1481643;40;20433;-92
2021/04/29 03:20:26;;;;;;;45.70;21.52;;;;;;;;;;1480297;40;20406;-91
2021/04/29 03:21:31;;;;;;;48.55;20.27;;;;;;;;;;1478378;40;20399;-90
2021/04/29 03:22:37;;;;;;;45.92;21.85;;;;;;;;;;1479043;40;20400;-92
2021/04/29 03:23:45;;;;;;;46.58;19.95;;;;;;;;;;1480346;40;20411;-92
2021/04/29 03:24:49;;;;;;;41.10;20.38;;;;;;;;;;1482484;40;20406;-89
2021/04/29 03:25:55;;;;;;;41.65;19.95;;;;;;;;;;1482899;40;20417;-92
2021/04/29 03:26:59;;;;;;;43.17;20.40;;;;;;;;;;1479211;40;20480;-92
2021/04/29 03:28:01;;;;;;;48.40;20.52;;;;;;;;;;1479439;40;20404;-90
2021/04/29 03:29:03;;;;;;;39.78;19.85;;;;;;;;;;1476479;40;20404;-91
2021/04/29 03:30:04;;;;;;;46.90;20.40;;;;;;;;;;1472201;40;20399;-90
2021/04/29 03:31:05;;;;;;;45.67;20.17;;;;;;;;;;1472599;40;20407;-90
2021/04/29 03:32:07;;;;;;;43.55;20.52;;;;;;;;;;1478122;40;20408;-89
2021/04/29 03:33:10;;;;;;;47.78;20.77;;;;;;;;;;1476590;40;20390;-89
2021/04/29 03:34:12;;;;;;;40.58;18.90;;;;;;;;;;1480926;40;20383;-90
2021/04/29 03:35:13;;;;;;;39.63;19.48;;;;;;;;;;1480885;40;20435;-87
2021/04/29 03:36:14;;;;;;;38.95;19.63;;;;;;;;;;1484773;40;20445;-89
2021/04/29 03:37:15;;;;;;;44.72;20.83;;;;;;;;;;1480529;40;20460;-87
2021/04/29 03:38:17;;;;;;;37.50;19.97;;;;;;;;;;1480927;40;20457;-89
2021/04/29 03:39:18;;;;;;;38.00;19.60;;;;;;;;;;1479662;40;20423;-86
2021/04/29 03:40:19;;;;;;;40.08;20.70;;;;;;;;;;1476825;40;20400;-85
2021/04/29 03:41:27;;;;;;;38.20;20.75;;;;;;;;;;1473010;40;20406;-86
2021/04/29 03:42:28;;;;;;;43.25;19.50;;;;;;;;;;1472699;40;20421;-86
2021/04/29 03:43:29;;;;;;;40.03;19.95;;;;;;;;;;1471979;40;20402;-87
2021/04/29 03:44:31;;;;;;;42.92;19.90;;;;;;;;;;1476983;40;20498;-88
2021/04/29 03:45:32;;;;;;;38.58;18.65;;;;;;;;;;1477805;40;20403;-89
2021/04/29 03:46:34;;;;;;;33.58;18.75;;;;;;;;;;1477870;40;20401;-88
2021/04/29 03:47:35;;;;;;;50.45;19.33;;;;;;;;;;1473862;40;20402;-87
2021/04/29 03:48:36;;;;;;;37.42;18.70;;;;;;;;;;1476338;40;20404;-88
2021/04/29 03:49:38;;;;;;;37.10;20.00;;;;;;;;;;1482293;40;20522;-87
2021/04/29 03:50:39;;;;;;;39.28;19.35;;;;;;;;;;1476845;40;20455;-88
2021/04/29 03:51:40;;;;;;;38.95;22.13;;;;;;;;;;1478089;40;20404;-88
2021/04/29 03:52:43;;;;;;;43.45;19.85;;;;;;;;;;1483437;40;20406;-87
2021/04/29 03:53:44;;;;;;;46.63;20.08;;;;;;;;;;1479852;40;20423;-86
2021/04/29 03:54:46;;;;;;;40.95;19.58;;;;;;;;;;1479047;40;20411;-87
2021/04/29 03:55:47;;;;;;;43.83;20.73;;;;;;;;;;1472737;40;20471;-87
2021/04/29 03:56:48;;;;;;;39.35;20.85;;;;;;;;;;1472121;40;20413;-86
2021/04/29 03:57:49;;;;;;;41.17;19.50;;;;;;;;;;1473032;40;20405;-87
2021/04/29 03:58:50;;;;;;;37.60;20.00;;;;;;;;;;1479094;40;20511;-86
2021/04/29 03:59:51;;;;;;;39.60;20.42;;;;;;;;;;1483806;40;20437;-86
2021/04/29 04:00:52;;;;;;;39.22;20.67;;;;;;;;;;1483876;40;20419;-86
2021/04/29 04:01:54;;;;;;;41.42;20.48;;;;;;;;;;1472748;40;20401;-86
2021/04/29 04:02:57;;;;;;;42.15;21.30;;;;;;;;;;1472243;40;20406;-86
2021/04/29 04:03:58;;;;;;;45.13;20.63;;;;;;;;;;1475953;40;20410;-86
2021/04/29 04:05:06;;;;;;;47.35;22.35;;;;;;;;;;1479527;40;20399;-86
2021/04/29 04:06:08;;;;;;;36.22;20.85;;;;;;;;;;1479469;40;20433;-86
2021/04/29 04:07:10;;;;;;;39.72;21.13;;;;;;;;;;1477462;40;20406;-88
2021/04/29 04:08:12;;;;;;;39.95;21.50;;;;;;;;;;1474625;40;20487;-88
2021/04/29 04:09:13;;;;;;;36.58;20.25;;;;;;;;;;1474606;40;20404;-86
2021/04/29 04:10:14;;;;;;;39.33;21.47;;;;;;;;;;1474255;40;20550;-88
2021/04/29 04:11:15;;;;;;;41.40;21.30;;;;;;;;;;1472644;40;20416;-87
2021/04/29 04:12:17;;;;;;;40.25;20.48;;;;;;;;;;1474647;40;20680;-88
2021/04/29 04:13:20;;;;;;;42.72;21.83;;;;;;;;;;1476336;40;20404;-88
2021/04/29 04:14:24;;;;;;;41.80;21.73;;;;;;;;;;1470747;40;20854;-87
2021/04/29 04:15:28;;;;;;;40.58;20.35;;;;;;;;;;1470873;40;20649;-88
2021/04/29 04:16:30;;;;;;;41.20;21.42;;;;;;;;;;1478885;40;20795;-89
2021/04/29 04:17:31;;;;;;;43.00;21.02;;;;;;;;;;1471463;40;20432;-88
2021/04/29 04:18:53;;;;;;;44.42;19.88;;;;;;;;;;1471539;40;20419;-87
2021/04/29 04:19:54;;;;;;;43.58;20.63;;;;;;;;;;1473763;40;20414;-88
2021/04/29 04:20:58;;;;;;;44.30;21.65;;;;;;;;;;1478831;40;20473;-87
2021/04/29 04:22:00;;;;;;;45.38;20.33;;;;;;;;;;1470512;40;20454;-88
2021/04/29 04:23:02;;;;;;;44.83;19.67;;;;;;;;;;1472605;40;20428;-87
2021/04/29 04:24:03;;;;;;;46.67;21.17;;;;;;;;;;1470312;40;20491;-87
2021/04/29 04:25:05;;;;;;;42.53;20.65;;;;;;;;;;1470542;40;20454;-87
2021/04/29 04:26:06;;;;;;;46.20;20.45;;;;;;;;;;1471131;40;20402;-86
2021/04/29 04:27:07;;;;;;;38.22;20.15;;;;;;;;;;1466062;40;20402;-87
2021/04/29 04:28:10;;;;;;;45.63;20.73;;;;;;;;;;1472804;40;21076;-87
2021/04/29 04:29:11;;;;;;;41.97;20.73;;;;;;;;;;1477983;40;20413;-88
2021/04/29 04:30:13;;;;;;;49.33;21.20;;;;;;;;;;1476929;40;20398;-87
2021/04/29 04:31:14;;;;;;;43.03;22.38;;;;;;;;;;1469976;40;20401;-87
2021/04/29 04:32:15;;;;;;;41.65;20.90;;;;;;;;;;1466302;40;20411;-87
2021/04/29 04:33:20;;;;;;;45.33;19.67;;;;;;;;;;1466518;40;20395;-87
2021/04/29 04:34:21;;;;;;;41.75;19.40;;;;;;;;;;1471081;40;20398;-89
2021/04/29 04:35:22;;;;;;;44.67;21.05;;;;;;;;;;1478538;40;20410;-87
2021/04/29 04:36:23;;;;;;;47.63;19.88;;;;;;;;;;1475831;40;20894;-87
2021/04/29 04:37:25;;;;;;;38.27;18.93;;;;;;;;;;1474205;40;20407;-88
2021/04/29 04:38:26;;;;;;;46.72;18.88;;;;;;;;;;1474461;40;20424;-88
2021/04/29 04:39:27;;;;;;;43.33;19.10;;;;;;;;;;1469885;40;20425;-88
2021/04/29 04:40:29;;;;;;;47.58;19.95;;;;;;;;;;1474704;40;20424;-87
2021/04/29 04:41:30;;;;;;;42.13;19.88;;;;;;;;;;1475030;40;20396;-88
2021/04/29 04:42:32;;;;;;;42.22;18.48;;;;;;;;;;1474446;40;20396;-89
2021/04/29 04:43:33;;;;;;;39.28;17.33;;;;;;;;;;1474605;40;20407;-89
2021/04/29 04:44:35;;;;;;;44.70;18.27;;;;;;;;;;1473851;40;20414;-86
2021/04/29 04:45:37;;;;;;;44.42;18.63;;;;;;;;;;1474850;40;20404;-86
2021/04/29 04:46:39;;;;;;;44.03;18.45;;;;;;;;;;1469990;40;20413;-87
2021/04/29 04:47:40;;;;;;;42.80;16.42;;;;;;;;;;1469349;40;20408;-88
2021/04/29 04:48:43;;;;;;;43.05;17.58;;;;;;;;;;1470290;40;20783;-87
2021/04/29 04:49:46;;;;;;;39.83;17.88;;;;;;;;;;1474059;40;20829;-86
2021/04/29 04:50:47;;;;;;;43.83;17.40;;;;;;;;;;1474779;40;20420;-86
2021/04/29 04:51:49;;;;;;;38.08;16.77;;;;;;;;;;1474698;40;20478;-87
2021/04/29 04:52:50;;;;;;;47.03;18.38;;;;;;;;;;1470566;40;20417;-87
2021/04/29 04:53:51;;;;;;;43.85;17.98;;;;;;;;;;1473982;40;20491;-87
2021/04/29 04:54:52;;;;;;;46.97;17.70;;;;;;;;;;1471868;40;20836;-86
2021/04/29 04:55:54;;;;;;;34.10;16.08;;;;;;;;;;1470624;40;20418;-88
2021/04/29 04:56:55;;;;;;;36.20;16.40;;;;;;;;;;1480090;40;20466;-87
2021/04/29 04:57:57;;;;;;;39.80;16.98;;;;;;;;;;1479651;40;20870;-87
2021/04/29 04:58:58;;;;;;;39.03;16.30;;;;;;;;;;1480281;40;20425;-85
2021/04/29 04:59:59;;;;;;;40.28;17.15;;;;;;;;;;1479494;40;20453;-87
2021/04/29 05:01:00;;;;;;;38.67;17.42;;;;;;;;;;1475396;40;20415;-87
2021/04/29 05:02:02;;;;;;;49.50;18.52;;;;;;;;;;1477292;40;20422;-86
2021/04/29 05:03:04;;;;;;;42.42;16.85;;;;;;;;;;1478652;40;20390;-87
2021/04/29 05:04:08;;;;;;;42.03;17.38;;;;;;;;;;1475634;40;20400;-85
2021/04/29 05:05:10;;;;;;;39.35;16.98;;;;;;;;;;1474205;40;20404;-86
2021/04/29 05:06:11;;;;;;;42.42;16.77;;;;;;;;;;1470303;40;20425;-87
2021/04/29 05:07:12;;;;;;;40.22;16.52;;;;;;;;;;1466898;40;20955;-87
2021/04/29 05:08:14;;;;;;;43.75;16.55;;;;;;;;;;1469027;40;20400;-87
2021/04/29 05:09:16;;;;;;;41.38;17.27;;;;;;;;;;1476056;40;20417;-87
2021/04/29 05:10:17;;;;;;;37.95;16.33;;;;;;;;;;1483488;40;20410;-89
2021/04/29 05:11:21;;;;;;;45.75;17.00;;;;;;;;;;1477185;40;20396;-88
2021/04/29 05:12:22;;;;;;;35.55;15.88;;;;;;;;;;1476138;40;20424;-89
2021/04/29 05:13:23;;;;;;;50.42;17.48;;;;;;;;;;1480115;40;20400;-88
2021/04/29 05:14:25;;;;;;;38.90;15.80;;;;;;;;;;1479521;40;20415;-89
2021/04/29 05:15:26;;;;;;;42.08;16.83;;;;;;;;;;1479993;40;20427;-88
2021/04/29 05:16:27;;;;;;;35.85;16.13;;;;;;;;;;1475250;40;20500;-87
2021/04/29 05:17:28;;;;;;;44.15;17.35;;;;;;;;;;1472939;40;20426;-87
2021/04/29 05:18:29;;;;;;;36.45;15.77;;;;;;;;;;1475616;40;20404;-87
2021/04/29 05:19:30;;;;;;;43.33;16.48;;;;;;;;;;1478608;40;20431;-88
2021/04/29 05:20:34;;;;;;;44.88;17.95;;;;;;;;;;1475062;40;20505;-88
2021/04/29 05:21:44;;;;;;;30.48;14.82;;;;;;;;;;1478504;40;20531;-88
2021/04/29 05:22:46;;;;;;;38.53;16.35;;;;;;;;;;1479623;40;20406;-87
2021/04/29 05:23:47;;;;;;;37.75;15.63;;;;;;;;;;1475706;40;20470;-86
2021/04/29 05:24:50;;;;;;;32.22;15.65;;;;;;;;;;1474774;40;20513;-88
2021/04/29 05:25:51;;;;;;;32.25;15.02;;;;;;;;;;1479337;40;20425;-88
2021/04/29 05:26:52;;;;;;;31.73;14.95;;;;;;;;;;1480390;40;20399;-88
2021/04/29 05:27:58;;;;;;;32.10;15.02;;;;;;;;;;1483415;40;20387;-88
2021/04/29 05:28:59;;;;;;;33.90;14.02;;;;;;;;;;1479713;40;20447;-86
2021/04/29 05:30:00;;;;;;;30.83;15.45;;;;;;;;;;1470972;40;20411;-88
2021/04/29 05:31:02;;;;;;;37.70;17.05;;;;;;;;;;1472380;40;20465;-88
2021/04/29 05:32:03;;;;;;;31.40;14.45;;;;;;;;;;1479414;40;20395;-88
2021/04/29 05:33:05;;;;;;;32.88;15.25;;;;;;;;;;1475154;40;20409;-87
2021/04/29 05:34:07;;;;;;;27.60;15.48;;;;;;;;;;1470827;40;20418;-84
2021/04/29 05:35:08;;;;;;;38.28;16.92;;;;;;;;;;1472430;40;20841;-87
2021/04/29 05:36:09;;;;;;;36.20;15.75;;;;;;;;;;1480129;40;20457;-89
2021/04/29 05:37:12;;;;;;;31.05;14.82;;;;;;;;;;1475653;40;20464;-88
2021/04/29 05:38:13;;;;;;;28.33;15.48;;;;;;;;;;1480162;40;20402;-87
2021/04/29 05:39:14;;;;;;;28.88;14.40;;;;;;;;;;1477632;40;20414;-87
2021/04/29 05:40:15;;;;;;;31.33;14.57;;;;;;;;;;1473662;40;20404;-87
2021/04/29 05:41:16;;;;;;;31.20;14.43;;;;;;;;;;1471233;40;20410;-87
2021/04/29 05:42:24;;;;;;;33.53;16.00;;;;;;;;;;1467090;40;20469;-87
2021/04/29 05:43:25;;;;;;;28.38;14.13;;;;;;;;;;1467895;40;20840;-88
2021/04/29 05:44:26;;;;;;;26.27;14.68;;;;;;;;;;1470821;40;20831;-87
2021/04/29 05:45:27;;;;;;;25.75;13.95;;;;;;;;;;1471025;40;20419;-87
2021/04/29 05:46:28;;;;;;;31.40;14.68;;;;;;;;;;1471236;40;20414;-87
2021/04/29 05:47:30;;;;;;;24.08;14.23;;;;;;;;;;1470698;40;20421;-87
2021/04/29 05:48:34;;;;;;;33.30;15.93;;;;;;;;;;1471426;40;20413;-87
2021/04/29 05:49:35;;;;;;;25.20;14.13;;;;;;;;;;1466259;40;20506;-88
2021/04/29 05:50:36;;;;;;;31.00;15.80;;;;;;;;;;1466634;40;20427;-88
2021/04/29 05:51:39;;;;;;;32.10;14.27;;;;;;;;;;1467862;40;20441;-88
2021/04/29 05:52:40;;;;;;;35.35;15.73;;;;;;;;;;1474127;40;20404;-88
2021/04/29 05:53:42;;;;;;;27.10;16.55;;;;;;;;;;1474653;40;20419;-86
2021/04/29 05:54:43;;;;;;;26.60;14.17;;;;;;;;;;1475169;40;20500;-88
2021/04/29 05:55:44;;;;;;;25.48;14.65;;;;;;;;;;1478939;40;20401;-88
2021/04/29 05:56:46;;;;;;;26.45;15.85;;;;;;;;;;1470609;40;20409;-86
2021/04/29 05:57:49;;;;;;;24.05;15.75;;;;;;;;;;1470625;40;20417;-87
2021/04/29 05:58:53;;;;;;;26.55;15.98;;;;;;;;;;1474118;40;20415;-87
2021/04/29 05:59:54;;;;;;;23.70;16.60;;;;;;;;;;1475274;40;20646;-88
2021/04/29 06:00:57;;;;;;;31.77;15.30;;;;;;;;;;1474245;40;20380;-87
2021/04/29 06:01:58;;;;;;;28.08;14.98;;;;;;;;;;1475380;40;20415;-87
2021/04/29 06:03:16;;;;;;;31.02;15.30;;;;;;;;;;1472553;40;20475;-88
2021/04/29 06:04:17;;;;;;;25.47;14.73;;;;;;;;;;1474882;40;20489;-86